createdAt,value
2019-03-01T00:01:04.012Z,9.43
2019-03-01T00:03:38.889Z,9.63
2019-03-01T00:06:22.114Z,9.90
2019-03-01T00:09:18.150Z,9.87
2019-03-01T00:12:40.175Z,10.00
2019-03-01T00:15:53.277Z,9.53
2019-03-01T00:18:57.342Z,10.17
2019-03-01T00:22:14.039Z,10.70
2019-03-01T00:25:37.168Z,9.90
2019-03-01T00:28:34.341Z,9.77
2019-03-01T00:31:28.912Z,10.13
2019-03-01T00:35:02.477Z,10.03
2019-03-01T00:38:20.477Z,10.10
2019-03-01T00:41:19.359Z,9.63
2019-03-01T00:44:33.970Z,9.93
2019-03-01T00:47:08.530Z,9.87
2019-03-01T00:49:43.026Z,10.25
2019-03-01T00:52:18.065Z,10.40
2019-03-01T00:54:53.013Z,10.63
2019-03-01T00:57:27.887Z,10.27
2019-03-01T01:00:10.551Z,11.17
2019-03-01T01:02:45.045Z,9.93
2019-03-01T01:05:19.755Z,10.35
2019-03-01T01:07:54.101Z,9.93
2019-03-01T01:10:29.081Z,10.30
2019-03-01T01:13:04.351Z,11.40
2019-03-01T01:15:39.018Z,10.28
2019-03-01T01:18:16.315Z,10.08
2019-03-01T01:20:50.714Z,10.70
2019-03-01T01:23:25.655Z,11.12
2019-03-01T01:26:00.889Z,9.80
2019-03-01T01:28:35.650Z,10.32
2019-03-01T01:31:10.764Z,10.07
2019-03-01T01:33:45.620Z,10.80
2019-03-01T01:36:20.571Z,9.63
2019-03-01T01:38:55.561Z,9.70
2019-03-01T01:41:30.447Z,10.10
2019-03-01T01:44:06.005Z,10.63
2019-03-01T01:46:41.686Z,10.10
2019-03-01T01:49:16.665Z,10.00
2019-03-01T01:51:51.452Z,9.97
2019-03-01T01:54:26.713Z,10.58
2019-03-01T01:57:01.333Z,9.90
2019-03-01T01:59:36.540Z,10.08
2019-03-01T02:02:11.318Z,9.57
2019-03-01T02:04:46.690Z,9.05
2019-03-01T02:07:21.291Z,8.93
2019-03-01T02:09:57.469Z,9.40
2019-03-01T02:12:32.459Z,9.53
2019-03-01T02:15:07.206Z,10.25
2019-03-01T02:17:42.205Z,9.45
2019-03-01T02:20:17.180Z,10.10
2019-03-01T02:22:51.897Z,9.33
2019-03-01T02:25:26.342Z,9.80
2019-03-01T02:28:01.601Z,9.33
2019-03-01T02:30:36.462Z,9.45
2019-03-01T02:33:10.938Z,8.90
2019-03-01T02:35:45.403Z,9.03
2019-03-01T02:38:20.606Z,9.50
2019-03-01T02:40:55.342Z,9.13
2019-03-01T02:43:29.883Z,8.63
2019-03-01T02:46:04.265Z,9.20
2019-03-01T02:48:39.201Z,8.93
2019-03-01T02:51:13.758Z,9.25
2019-03-01T02:53:48.768Z,8.93
2019-03-01T02:56:23.264Z,8.83
2019-03-01T02:58:58.059Z,8.88
2019-03-01T03:01:33.582Z,8.83
2019-03-01T03:04:08.134Z,9.80
2019-03-01T03:06:51.491Z,9.03
2019-03-01T03:09:27.699Z,8.90
2019-03-01T03:12:02.502Z,9.05
2019-03-01T03:14:37.262Z,9.60
2019-03-01T03:17:12.228Z,9.43
2019-03-01T03:19:46.621Z,8.73
2019-03-01T03:22:21.072Z,9.28
2019-03-01T03:24:57.304Z,8.70
2019-03-01T03:27:31.837Z,8.98
2019-03-01T03:30:06.794Z,8.90
2019-03-01T03:32:42.015Z,9.20
2019-03-01T03:35:16.863Z,9.70
2019-03-01T03:37:51.529Z,9.33
2019-03-01T03:40:26.611Z,9.13
2019-03-01T03:43:02.049Z,8.65
2019-03-01T03:45:36.690Z,8.78
2019-03-01T03:48:11.669Z,8.58
2019-03-01T03:50:46.834Z,8.75
2019-03-01T03:53:21.518Z,9.25
2019-03-01T03:55:56.219Z,9.13
2019-03-01T03:58:31.113Z,9.20
2019-03-01T04:01:05.937Z,9.10
2019-03-01T04:03:40.765Z,8.98
2019-03-01T04:06:15.547Z,8.68
2019-03-01T04:08:50.368Z,8.70
2019-03-01T04:11:24.662Z,8.60
2019-03-01T04:13:59.418Z,9.40
2019-03-01T04:16:34.499Z,9.48
2019-03-01T04:19:09.302Z,8.98
2019-03-01T04:21:44.083Z,9.03
2019-03-01T04:24:19.518Z,8.18
2019-03-01T04:26:54.088Z,9.15
2019-03-01T04:29:29.193Z,7.72
2019-03-01T04:32:03.990Z,9.60
2019-03-01T04:34:39.493Z,8.80
2019-03-01T04:37:13.992Z,9.17
2019-03-01T04:39:49.535Z,9.58
2019-03-01T04:42:24.060Z,9.05
2019-03-01T04:44:58.837Z,9.38
2019-03-01T04:47:33.335Z,8.83
2019-03-01T04:50:08.788Z,8.78
2019-03-01T04:52:43.681Z,8.70
2019-03-01T04:55:29.071Z,9.05
2019-03-01T04:58:03.521Z,8.88
2019-03-01T05:00:38.372Z,8.70
2019-03-01T05:03:13.213Z,9.63
2019-03-01T05:05:47.824Z,8.90
2019-03-01T05:08:22.752Z,8.23
2019-03-01T05:10:57.470Z,9.08
2019-03-01T05:13:35.828Z,8.55
2019-03-01T05:16:10.353Z,8.83
2019-03-01T05:18:45.150Z,8.33
2019-03-01T05:21:19.896Z,8.30
2019-03-01T05:23:54.284Z,8.85
2019-03-01T05:26:28.279Z,8.60
2019-03-01T05:29:03.182Z,8.55
2019-03-01T05:31:37.759Z,8.80
2019-03-01T05:34:13.325Z,8.33
2019-03-01T05:36:48.256Z,9.43
2019-03-01T05:39:24.068Z,8.58
2019-03-01T05:42:00.928Z,8.13
2019-03-01T05:44:35.418Z,8.90
2019-03-01T05:47:10.335Z,8.80
2019-03-01T05:49:44.917Z,9.00
2019-03-01T05:52:19.930Z,8.28
2019-03-01T05:54:54.290Z,9.15
2019-03-01T05:57:28.963Z,9.35
2019-03-01T06:00:06.306Z,8.68
2019-03-01T06:03:08.066Z,9.45
2019-03-01T06:05:43.961Z,8.80
2019-03-01T06:08:58.031Z,9.15
2019-03-01T06:12:24.693Z,8.35
2019-03-01T06:15:56.628Z,8.65
2019-03-01T06:19:28.200Z,8.75
2019-03-01T06:22:40.921Z,8.65
2019-03-01T06:25:40.599Z,8.35
2019-03-01T06:28:43.079Z,8.23
2019-03-01T06:32:03.703Z,8.33
2019-03-01T06:35:16.793Z,8.63
2019-03-01T06:39:10.877Z,8.50
2019-03-01T06:42:03.933Z,7.83
2019-03-01T06:44:54.238Z,8.25
2019-03-01T06:47:45.128Z,8.35
2019-03-01T06:50:21.872Z,8.10
2019-03-01T06:52:56.382Z,8.10
2019-03-01T06:55:42.316Z,7.28
2019-03-01T06:58:45.498Z,8.15
2019-03-01T07:01:21.904Z,8.03
2019-03-01T07:04:11.517Z,7.97
2019-03-01T07:06:46.240Z,8.15
2019-03-01T07:09:20.798Z,8.28
2019-03-01T07:11:55.628Z,7.87
2019-03-01T07:14:30.186Z,8.03
2019-03-01T07:17:04.538Z,8.43
2019-03-01T07:19:39.248Z,8.60
2019-03-01T07:22:13.926Z,8.85
2019-03-01T07:24:49.206Z,8.50
2019-03-01T07:27:23.447Z,8.15
2019-03-01T07:29:59.960Z,8.88
2019-03-01T07:32:41.734Z,8.60
2019-03-01T07:35:17.120Z,8.88
2019-03-01T07:37:53.561Z,8.63
2019-03-01T07:40:29.915Z,8.23
2019-03-01T07:43:04.385Z,8.00
2019-03-01T07:45:39.108Z,7.90
2019-03-01T07:48:14.113Z,8.25
2019-03-01T07:50:48.898Z,8.10
2019-03-01T07:53:24.674Z,8.15
2019-03-01T07:56:00.700Z,8.00
2019-03-01T07:58:36.658Z,9.13
2019-03-01T08:01:11.328Z,8.98
2019-03-01T08:03:49.951Z,8.30
2019-03-01T08:06:23.188Z,8.50
2019-03-01T08:08:57.913Z,8.33
2019-03-01T08:11:32.890Z,9.03
2019-03-01T08:14:07.801Z,8.38
2019-03-01T08:16:42.752Z,8.40
2019-03-01T08:19:22.498Z,7.95
2019-03-01T08:21:53.765Z,8.48
2019-03-01T08:24:28.187Z,8.15
2019-03-01T08:27:06.590Z,7.67
2019-03-01T08:29:40.482Z,8.20
2019-03-01T08:32:15.166Z,8.28
2019-03-01T08:34:53.631Z,8.43
2019-03-01T08:37:26.064Z,8.73
2019-03-01T08:40:00.750Z,8.50
2019-03-01T08:42:37.365Z,8.40
2019-03-01T08:45:13.660Z,7.87
2019-03-01T08:47:48.955Z,7.70
2019-03-01T08:50:23.713Z,8.85
2019-03-01T08:52:58.803Z,8.83
2019-03-01T08:55:35.420Z,8.78
2019-03-01T08:58:10.761Z,8.73
2019-03-01T09:00:45.517Z,8.20
2019-03-01T09:03:43.239Z,8.30
2019-03-01T09:06:18.028Z,8.13
2019-03-01T09:08:52.763Z,8.20
2019-03-01T09:11:27.639Z,8.53
2019-03-01T09:14:02.069Z,8.33
2019-03-01T09:16:36.742Z,8.63
2019-03-01T09:19:11.700Z,8.40
2019-03-01T09:21:50.307Z,8.63
2019-03-01T09:24:25.620Z,8.48
2019-03-01T09:26:59.531Z,8.30
2019-03-01T09:29:41.220Z,8.00
2019-03-01T09:32:10.206Z,7.83
2019-03-01T09:34:46.094Z,9.05
2019-03-01T09:37:20.457Z,7.72
2019-03-01T09:40:05.042Z,8.93
2019-03-01T09:42:31.290Z,8.75
2019-03-01T09:45:05.761Z,8.68
2019-03-01T09:47:40.670Z,8.48
2019-03-01T09:50:16.311Z,9.03
2019-03-01T09:52:50.970Z,8.35
2019-03-01T09:55:27.458Z,9.03
2019-03-01T09:58:02.818Z,8.48
2019-03-01T10:00:37.399Z,9.20
2019-03-01T10:03:13.057Z,8.88
2019-03-01T10:05:47.497Z,8.73
2019-03-01T10:08:23.839Z,8.85
2019-03-01T10:10:58.334Z,8.80
2019-03-01T10:16:08.864Z,8.63
2019-03-01T10:18:43.338Z,8.63
2019-03-01T10:21:18.484Z,8.80
2019-03-01T10:23:52.834Z,9.13
2019-03-01T10:26:27.399Z,8.85
2019-03-01T10:29:07.239Z,8.78
2019-03-01T10:31:42.030Z,8.58
2019-03-01T10:34:17.428Z,8.58
2019-03-01T10:36:51.942Z,8.38
2019-03-01T10:39:26.831Z,8.95
2019-03-01T10:42:01.616Z,8.08
2019-03-01T10:44:36.297Z,8.73
2019-03-01T10:47:11.255Z,8.63
2019-03-01T10:49:45.727Z,8.65
2019-03-01T10:52:20.504Z,8.40
2019-03-01T10:54:56.347Z,8.50
2019-03-01T10:57:32.243Z,8.80
2019-03-01T11:00:06.812Z,8.93
2019-03-01T11:02:41.649Z,9.20
2019-03-01T11:05:16.046Z,9.08
2019-03-01T11:07:52.290Z,9.25
2019-03-01T11:10:31.799Z,8.00
2019-03-01T11:13:06.862Z,8.85
2019-03-01T11:15:41.128Z,8.75
2019-03-01T11:18:16.106Z,8.70
2019-03-01T11:20:52.521Z,9.13
2019-03-01T11:23:29.494Z,8.35
2019-03-01T11:26:04.480Z,8.93
2019-03-01T11:28:39.061Z,8.80
2019-03-01T11:31:13.982Z,8.80
2019-03-01T11:33:48.948Z,8.70
2019-03-01T11:36:24.855Z,8.18
2019-03-01T11:38:59.474Z,8.98
2019-03-01T11:41:34.381Z,8.73
2019-03-01T11:44:09.085Z,8.78
2019-03-01T11:46:44.020Z,7.97
2019-03-01T11:49:18.614Z,7.58
2019-03-01T11:51:53.410Z,7.87
2019-03-01T11:54:27.515Z,7.63
2019-03-01T11:57:02.329Z,7.80
2019-03-01T11:59:38.840Z,7.47
2019-03-01T12:02:13.408Z,7.90
2019-03-01T12:04:48.237Z,8.13
2019-03-01T12:07:23.297Z,7.70
2019-03-01T12:09:57.961Z,8.63
2019-03-01T12:12:33.074Z,8.53
2019-03-01T12:15:08.338Z,8.37
2019-03-01T12:17:43.179Z,7.97
2019-03-01T12:20:19.051Z,7.90
2019-03-01T12:22:54.565Z,8.13
2019-03-01T12:25:29.168Z,8.53
2019-03-01T12:28:04.450Z,8.40
2019-03-01T12:30:41.304Z,8.60
2019-03-01T12:33:15.498Z,8.17
2019-03-01T12:35:49.238Z,8.20
2019-03-01T12:38:23.765Z,8.97
2019-03-01T12:40:58.663Z,9.10
2019-03-01T12:43:33.150Z,8.60
2019-03-01T12:46:08.191Z,8.67
2019-03-01T12:48:43.130Z,8.67
2019-03-01T12:51:17.742Z,8.77
2019-03-01T12:53:52.533Z,7.93
2019-03-01T12:56:27.003Z,8.80
2019-03-01T12:59:01.848Z,8.53
2019-03-01T13:01:37.397Z,8.30
2019-03-01T13:04:12.230Z,8.60
2019-03-01T13:06:47.290Z,8.60
2019-03-01T13:09:23.510Z,8.47
2019-03-01T13:11:58.245Z,8.63
2019-03-01T13:14:32.875Z,8.93
2019-03-01T13:17:07.679Z,8.33
2019-03-01T13:19:41.733Z,8.37
2019-03-01T13:22:20.250Z,8.87
2019-03-01T13:24:54.430Z,8.40
2019-03-01T13:27:29.546Z,8.03
2019-03-01T13:30:03.944Z,8.37
2019-03-01T13:32:38.935Z,8.30
2019-03-01T13:35:14.040Z,8.30
2019-03-01T13:37:48.813Z,8.07
2019-03-01T13:40:24.547Z,8.33
2019-03-01T13:43:00.575Z,8.67
2019-03-01T13:45:34.967Z,8.50
2019-03-01T13:48:09.453Z,9.10
2019-03-01T13:50:44.268Z,8.33
2019-03-01T13:53:19.146Z,8.40
2019-03-01T13:55:56.393Z,7.77
2019-03-01T13:58:28.983Z,8.00
2019-03-01T14:01:03.883Z,8.37
2019-03-01T14:03:38.974Z,8.83
2019-03-01T14:06:13.612Z,8.30
2019-03-01T14:08:48.132Z,8.58
2019-03-01T14:11:24.177Z,8.37
2019-03-01T14:13:58.573Z,9.07
2019-03-01T14:16:33.646Z,8.50
2019-03-01T14:19:07.916Z,8.40
2019-03-01T14:21:42.730Z,8.63
2019-03-01T14:24:17.440Z,8.50
2019-03-01T14:26:53.872Z,8.43
2019-03-01T14:29:28.286Z,8.75
2019-03-01T14:32:03.678Z,8.58
2019-03-01T14:34:38.921Z,8.78
2019-03-01T14:37:15.135Z,8.10
2019-03-01T14:39:51.357Z,7.97
2019-03-01T14:42:26.203Z,9.13
2019-03-01T14:45:00.890Z,9.13
2019-03-01T14:47:36.732Z,8.68
2019-03-01T14:50:13.074Z,8.35
2019-03-01T14:52:47.857Z,8.87
2019-03-01T14:55:27.740Z,8.40
2019-03-01T14:58:14.865Z,8.48
2019-03-01T15:01:14.493Z,8.35
2019-03-01T15:03:49.775Z,8.65
2019-03-01T15:06:25.061Z,8.70
2019-03-01T15:09:00.315Z,8.23
2019-03-01T15:11:35.220Z,8.95
2019-03-01T15:14:13.313Z,9.10
2019-03-01T15:16:45.962Z,8.68
2019-03-01T15:19:21.878Z,8.63
2019-03-01T15:21:57.513Z,8.85
2019-03-01T15:24:33.188Z,9.15
2019-03-01T15:27:08.378Z,9.00
2019-03-01T15:29:43.498Z,9.58
2019-03-01T15:32:18.896Z,8.20
2019-03-01T15:34:54.231Z,9.55
2019-03-01T15:37:31.015Z,9.48
2019-03-01T15:40:07.309Z,9.43
2019-03-01T15:42:41.987Z,9.48
2019-03-01T15:45:18.637Z,9.08
2019-03-01T15:47:53.445Z,9.40
2019-03-01T15:50:28.218Z,9.90
2019-03-01T15:53:03.080Z,10.20
2019-03-01T15:55:38.545Z,9.38
2019-03-01T15:58:13.116Z,10.03
2019-03-01T16:00:47.520Z,10.30
2019-03-01T16:03:22.325Z,9.90
2019-03-01T16:05:56.882Z,10.08
2019-03-01T16:08:31.675Z,9.60
2019-03-01T16:11:09.241Z,10.00
2019-03-01T16:13:47.966Z,10.50
2019-03-01T16:16:18.638Z,10.30
2019-03-01T16:18:53.701Z,10.05
2019-03-01T16:21:27.875Z,10.55
2019-03-01T16:24:05.066Z,10.98
2019-03-01T16:26:39.717Z,10.10
2019-03-01T16:29:14.506Z,10.55
2019-03-01T16:31:49.715Z,10.03
2019-03-01T16:34:24.416Z,10.00
2019-03-01T16:37:00.954Z,10.70
2019-03-01T16:39:35.784Z,10.25
2019-03-01T16:42:10.182Z,10.15
2019-03-01T16:44:46.025Z,10.25
2019-03-01T16:47:23.323Z,10.58
2019-03-01T16:49:58.910Z,10.40
2019-03-01T16:52:33.883Z,10.48
2019-03-01T16:55:09.048Z,10.93
2019-03-01T16:57:43.965Z,10.38
2019-03-01T17:00:19.857Z,10.30
2019-03-01T17:02:56.623Z,9.90
2019-03-01T17:05:31.237Z,10.43
2019-03-01T17:08:06.459Z,9.68
2019-03-01T17:10:42.656Z,10.32
2019-03-01T17:13:17.512Z,10.82
2019-03-01T17:15:52.695Z,11.22
2019-03-01T17:18:27.293Z,10.77
2019-03-01T17:21:02.230Z,10.08
2019-03-01T17:23:39.237Z,10.50
2019-03-01T17:26:12.930Z,10.17
2019-03-01T17:28:49.745Z,10.85
2019-03-01T17:31:26.722Z,9.85
2019-03-01T17:33:59.892Z,10.85
2019-03-01T17:36:34.524Z,11.10
2019-03-01T17:39:10.909Z,9.97
2019-03-01T17:41:48.258Z,10.18
2019-03-01T17:44:23.821Z,9.90
2019-03-01T17:46:58.351Z,10.70
2019-03-01T17:49:33.765Z,9.88
2019-03-01T17:52:09.310Z,10.15
2019-03-01T17:54:43.824Z,10.80
2019-03-01T17:57:20.074Z,10.15
2019-03-01T17:59:55.658Z,9.78
2019-03-01T18:02:30.922Z,10.03
2019-03-01T18:05:05.716Z,10.05
2019-03-01T18:07:40.339Z,9.65
2019-03-01T18:10:15.375Z,10.60
2019-03-01T18:12:53.068Z,10.00
2019-03-01T18:15:26.355Z,10.30
2019-03-01T18:18:00.961Z,10.00
2019-03-01T18:20:37.671Z,10.08
2019-03-01T18:23:12.166Z,9.67
2019-03-01T18:25:48.006Z,10.50
2019-03-01T18:28:24.944Z,9.67
2019-03-01T18:30:58.535Z,10.15
2019-03-01T18:33:33.180Z,10.35
2019-03-01T18:36:08.564Z,10.30
2019-03-01T18:38:43.141Z,10.38
2019-03-01T18:41:19.114Z,11.22
2019-03-01T18:43:53.586Z,10.58
2019-03-01T18:46:28.297Z,10.40
2019-03-01T18:49:03.415Z,9.97
2019-03-01T18:51:45.302Z,10.20
2019-03-01T18:54:19.941Z,9.80
2019-03-01T18:56:54.827Z,9.73
2019-03-01T18:59:29.420Z,10.55
2019-03-01T19:02:04.419Z,10.40
2019-03-01T19:04:39.049Z,10.58
2019-03-01T19:07:13.572Z,10.45
2019-03-01T19:09:48.703Z,10.30
2019-03-01T19:12:24.428Z,9.70
2019-03-01T19:15:00.070Z,10.45
2019-03-01T19:17:36.800Z,9.85
2019-03-01T19:20:12.191Z,10.10
2019-03-01T19:22:48.475Z,9.78
2019-03-01T19:25:25.259Z,10.85
2019-03-01T19:27:59.506Z,10.87
2019-03-01T19:30:34.410Z,10.18
2019-03-01T19:33:08.816Z,9.80
2019-03-01T19:35:44.150Z,9.98
2019-03-01T19:38:21.722Z,9.48
2019-03-01T19:40:55.300Z,9.73
2019-03-01T19:43:30.200Z,10.82
2019-03-01T19:46:05.293Z,10.55
2019-03-01T19:48:39.935Z,10.18
2019-03-01T19:51:14.804Z,10.75
2019-03-01T19:53:48.801Z,10.33
2019-03-01T19:56:25.854Z,11.20
2019-03-01T19:59:00.773Z,10.13
2019-03-01T20:01:35.344Z,10.35
2019-03-01T20:04:10.515Z,9.70
2019-03-01T20:06:45.120Z,10.00
2019-03-01T20:09:19.580Z,9.63
2019-03-01T20:11:59.179Z,10.00
2019-03-01T20:14:35.483Z,10.65
2019-03-01T20:17:12.929Z,10.43
2019-03-01T20:19:47.318Z,10.40
2019-03-01T20:22:22.340Z,10.13
2019-03-01T20:24:57.190Z,10.60
2019-03-01T20:27:35.509Z,9.65
2019-03-01T20:30:09.393Z,10.48
2019-03-01T20:32:47.417Z,10.28
2019-03-01T20:35:22.061Z,9.65
2019-03-01T20:37:59.934Z,10.10
2019-03-01T20:40:32.944Z,9.95
2019-03-01T20:43:07.503Z,10.40
2019-03-01T20:45:42.743Z,10.35
2019-03-01T20:48:17.614Z,10.20
2019-03-01T20:50:52.440Z,10.40
2019-03-01T20:53:26.504Z,10.28
2019-03-01T20:56:01.504Z,10.32
2019-03-01T20:58:39.588Z,10.85
2019-03-01T21:01:14.408Z,9.98
2019-03-01T21:03:49.225Z,10.43
2019-03-01T21:06:23.957Z,10.40
2019-03-01T21:09:00.758Z,10.37
2019-03-01T21:11:41.723Z,10.03
2019-03-01T21:14:16.554Z,10.53
2019-03-01T21:16:53.253Z,10.40
2019-03-01T21:19:28.887Z,10.23
2019-03-01T21:22:04.747Z,9.87
2019-03-01T21:24:39.578Z,10.50
2019-03-01T21:27:14.227Z,10.30
2019-03-01T21:29:49.332Z,10.18
2019-03-01T21:32:24.108Z,10.63
2019-03-01T21:34:58.540Z,9.75
2019-03-01T21:37:34.760Z,10.25
2019-03-01T21:40:09.082Z,9.73
2019-03-01T21:42:44.269Z,10.03
2019-03-01T21:45:21.621Z,10.35
2019-03-01T21:47:56.706Z,9.93
2019-03-01T21:50:31.165Z,10.32
2019-03-01T21:53:06.715Z,10.18
2019-03-01T21:55:41.326Z,10.55
2019-03-01T21:58:16.110Z,9.73
2019-03-01T22:00:50.427Z,10.13
2019-03-01T22:03:28.255Z,10.23
2019-03-01T22:06:01.525Z,9.70
2019-03-01T22:08:36.082Z,10.05
2019-03-01T22:11:13.589Z,10.37
2019-03-01T22:13:47.976Z,10.25
2019-03-01T22:16:22.598Z,9.58
2019-03-01T22:18:58.665Z,10.30
2019-03-01T22:21:33.605Z,9.68
2019-03-01T22:24:08.165Z,9.97
2019-03-01T22:26:43.029Z,9.93
2019-03-01T22:29:17.917Z,9.55
2019-03-01T22:31:53.088Z,10.28
2019-03-01T22:34:30.874Z,9.65
2019-03-01T22:37:03.824Z,9.70
2019-03-01T22:39:38.642Z,10.38
2019-03-01T22:42:14.320Z,10.20
2019-03-01T22:44:50.267Z,10.55
2019-03-01T22:47:25.018Z,10.30
2019-03-01T22:50:04.027Z,9.78
2019-03-01T22:52:36.437Z,10.63
2019-03-01T22:55:11.531Z,9.65
2019-03-01T22:57:46.185Z,9.95
2019-03-01T23:01:18.878Z,10.03
2019-03-01T23:04:01.989Z,8.90
2019-03-01T23:06:36.417Z,9.73
2019-03-01T23:09:15.316Z,10.28
2019-03-01T23:11:50.236Z,9.53
2019-03-01T23:14:27.313Z,9.67
2019-03-01T23:17:01.015Z,9.53
2019-03-01T23:19:35.746Z,9.97
2019-03-01T23:22:11.052Z,9.93
2019-03-01T23:24:46.392Z,10.30
2019-03-01T23:27:23.083Z,9.80
2019-03-01T23:29:59.020Z,9.50
2019-03-01T23:32:33.951Z,10.35
2019-03-01T23:35:08.451Z,10.00
2019-03-01T23:37:43.331Z,9.58
2019-03-01T23:40:20.946Z,9.60
2019-03-01T23:42:57.488Z,9.85
2019-03-01T23:45:33.524Z,9.50
2019-03-01T23:48:10.615Z,8.97
2019-03-01T23:50:43.978Z,9.40
2019-03-01T23:53:18.384Z,9.23
2019-03-01T23:55:54.718Z,10.18
2019-03-01T23:58:30.397Z,9.73
